Terminal Aerodrome Forecast
Issued by NWS

Home | Current Version | Previous Version | Text Only | Print | Product List | Glossary On
Versions: 1 2 3 4 5 6 7 8 9 10 11 12 13 14 15 16
000
FTUS43 KILX 301150
TAFDEC
TAF
KDEC 301150Z 3012/3112 VRB05KT 3SM -RA BR VCTS BKN010CB OVC028
      TEMPO 3012/3014 1 1/2SM TSRA OVC004CB
     FM301500 16012KT P6SM VCSH OVC025
     FM301800 33013G21KT 4SM -RA BR VCTS SCT006 OVC012CB
     FM310200 36016G26KT P6SM VCSH BKN006 OVC012
     FM310800 35016KT P6SM OVC004=

USA.gov is the U.S. government's official web portal to all federal, state and local government web resources and services.